createdAt,value
2023-04-21T00:00:28.527Z,14.32
2023-04-21T00:02:56.686Z,14.36
2023-04-21T00:05:25.023Z,14.37
2023-04-21T00:07:53.133Z,14.32
2023-04-21T00:10:21.234Z,14.32
2023-04-21T00:12:49.343Z,14.40
2023-04-21T00:15:17.373Z,14.43
2023-04-21T00:17:47.135Z,13.86
2023-04-21T00:20:15.472Z,13.41
2023-04-21T00:22:43.803Z,13.92
2023-04-21T00:25:11.888Z,14.15
2023-04-21T00:27:40.002Z,14.26
2023-04-21T00:30:09.493Z,14.30
2023-04-21T00:32:38.460Z,14.35
2023-04-21T00:35:08.895Z,14.39
2023-04-21T00:37:37.292Z,14.38
2023-04-21T00:40:06.150Z,14.40
2023-04-21T00:42:34.352Z,14.35
2023-04-21T00:45:02.647Z,14.15
2023-04-21T00:47:32.273Z,14.25
2023-04-21T00:50:00.744Z,14.34
2023-04-21T00:52:30.835Z,14.39
2023-04-21T00:54:59.099Z,14.18
2023-04-21T00:57:28.784Z,14.33
2023-04-21T00:59:56.930Z,14.34
2023-04-21T01:02:26.340Z,14.39
2023-04-21T01:04:54.558Z,14.38
2023-04-21T01:07:22.774Z,14.38
2023-04-21T01:09:52.172Z,14.29
2023-04-21T01:12:20.531Z,14.31
2023-04-21T01:14:48.570Z,14.24
2023-04-21T01:17:18.991Z,14.21
2023-04-21T01:19:49.085Z,14.28
2023-04-21T01:22:18.776Z,14.10
2023-04-21T01:24:48.961Z,13.92
2023-04-21T01:27:19.305Z,13.82
2023-04-21T01:29:50.557Z,14.09
2023-04-21T01:32:20.946Z,14.16
2023-04-21T01:34:50.687Z,14.02
2023-04-21T01:37:23.052Z,13.68
2023-04-21T01:39:55.398Z,13.37
2023-04-21T01:42:26.036Z,13.20
2023-04-21T01:44:54.765Z,12.89
2023-04-21T01:47:23.113Z,12.88
2023-04-21T01:49:51.242Z,12.79
2023-04-21T01:52:21.832Z,12.64
2023-04-21T01:54:50.191Z,12.68
2023-04-21T01:57:18.982Z,12.86
2023-04-21T01:59:47.113Z,12.94
2023-04-21T02:02:15.311Z,12.52
2023-04-21T02:04:43.425Z,12.99
2023-04-21T02:07:11.379Z,13.05
2023-04-21T02:09:42.956Z,12.68
2023-04-21T02:12:11.304Z,12.52
2023-04-21T02:14:43.624Z,12.33
2023-04-21T02:17:11.832Z,12.15
2023-04-21T02:19:39.857Z,12.73
2023-04-21T02:22:08.470Z,12.65
2023-04-21T02:24:36.487Z,13.02
2023-04-21T02:27:06.154Z,12.95
2023-04-21T02:29:34.187Z,13.08
2023-04-21T02:32:10.783Z,13.17
2023-04-21T02:34:46.412Z,13.01
2023-04-21T02:37:14.507Z,12.79
2023-04-21T02:39:43.771Z,12.82
2023-04-21T02:42:13.184Z,12.72
2023-04-21T02:44:42.961Z,12.81
2023-04-21T02:47:10.958Z,12.57
2023-04-21T02:49:42.349Z,12.48
2023-04-21T02:52:10.610Z,12.18
2023-04-21T02:54:38.858Z,12.08
2023-04-21T02:57:06.899Z,11.78
2023-04-21T02:59:36.380Z,11.41
2023-04-21T03:02:04.869Z,11.35
2023-04-21T03:04:34.296Z,11.02
2023-04-21T03:07:02.586Z,10.80
2023-04-21T03:09:30.708Z,10.85
2023-04-21T03:12:00.664Z,10.84
2023-04-21T03:14:28.735Z,10.88
2023-04-21T03:16:58.230Z,10.89
2023-04-21T03:19:26.346Z,10.56
2023-04-21T03:21:54.420Z,10.29
2023-04-21T03:24:23.135Z,10.40
2023-04-21T03:26:51.384Z,10.29
2023-04-21T03:29:19.787Z,10.36
2023-04-21T03:31:48.114Z,10.82
2023-04-21T03:34:17.713Z,10.76
2023-04-21T03:36:46.134Z,10.51
2023-04-21T03:41:47.406Z,10.66
2023-04-21T03:44:20.381Z,10.35
2023-04-21T03:46:48.588Z,10.47
2023-04-21T03:49:18.102Z,11.02
2023-04-21T03:51:46.242Z,10.78
2023-04-21T03:54:14.334Z,11.00
2023-04-21T03:56:42.454Z,10.98
2023-04-21T03:59:10.701Z,10.70
2023-04-21T04:01:38.860Z,10.56
2023-04-21T04:04:07.019Z,10.71
2023-04-21T04:06:36.952Z,10.59
2023-04-21T04:09:05.092Z,10.44
2023-04-21T04:11:33.263Z,10.53
2023-04-21T04:14:02.204Z,10.78
2023-04-21T04:16:30.665Z,10.77
2023-04-21T04:18:58.735Z,10.45
2023-04-21T04:21:27.638Z,10.29
2023-04-21T04:23:57.043Z,10.39
2023-04-21T04:26:25.760Z,10.53
2023-04-21T04:28:56.365Z,10.58
2023-04-21T04:31:25.729Z,10.46
2023-04-21T04:33:55.477Z,10.38
2023-04-21T04:36:30.658Z,10.63
2023-04-21T04:39:04.557Z,10.81
2023-04-21T04:41:33.747Z,11.10
2023-04-21T04:44:01.863Z,11.53
2023-04-21T04:46:30.059Z,11.80
2023-04-21T04:48:58.143Z,11.99
2023-04-21T04:51:26.421Z,12.05
2023-04-21T04:53:54.395Z,12.00
2023-04-21T04:56:24.231Z,12.22
2023-04-21T04:58:52.448Z,12.21
2023-04-21T05:01:21.088Z,11.97
2023-04-21T05:03:49.184Z,11.79
2023-04-21T05:06:17.446Z,12.11
2023-04-21T05:08:45.912Z,12.18
2023-04-21T05:11:13.996Z,12.20
2023-04-21T05:13:43.522Z,12.27
2023-04-21T05:16:11.707Z,12.49
2023-04-21T05:18:39.757Z,12.47
2023-04-21T05:21:08.409Z,12.06
2023-04-21T05:23:36.440Z,12.10
2023-04-21T05:26:05.057Z,12.36
2023-04-21T05:28:33.344Z,12.36
2023-04-21T05:31:02.855Z,12.53
2023-04-21T05:33:32.066Z,12.43
2023-04-21T05:36:00.348Z,12.77
2023-04-21T05:38:28.407Z,12.72
2023-04-21T05:40:56.812Z,12.51
2023-04-21T05:43:24.966Z,12.53
2023-04-21T05:45:53.160Z,12.76
2023-04-21T05:48:23.522Z,13.17
2023-04-21T05:50:51.593Z,13.31
2023-04-21T05:53:19.648Z,13.29
2023-04-21T05:55:47.748Z,13.22
2023-04-21T05:58:15.759Z,13.45
2023-04-21T06:00:43.971Z,13.61
2023-04-21T06:03:12.200Z,13.89
2023-04-21T06:05:41.774Z,14.12
2023-04-21T06:08:09.851Z,13.98
2023-04-21T06:10:38.062Z,13.89
2023-04-21T06:13:06.146Z,13.99
2023-04-21T06:15:34.268Z,14.35
2023-04-21T06:18:02.358Z,14.30
2023-04-21T06:20:30.469Z,14.38
2023-04-21T06:22:59.868Z,14.52
2023-04-21T06:25:28.199Z,14.82
2023-04-21T06:27:56.447Z,15.16
2023-04-21T06:30:24.714Z,15.19
2023-04-21T06:32:52.747Z,15.22
2023-04-21T06:35:21.471Z,15.54
2023-04-21T06:37:49.533Z,15.73
2023-04-21T06:40:19.189Z,15.57
2023-04-21T06:42:47.200Z,15.90
2023-04-21T06:45:15.526Z,16.11
2023-04-21T06:47:44.063Z,16.15
2023-04-21T06:50:12.301Z,16.29
2023-04-21T06:52:40.323Z,16.44
2023-04-21T06:55:09.341Z,16.43
2023-04-21T06:57:38.662Z,16.56
2023-04-21T07:00:08.026Z,16.67
2023-04-21T07:02:36.180Z,16.31
2023-04-21T07:05:04.762Z,16.54
2023-04-21T07:07:32.783Z,16.64
2023-04-21T07:10:00.934Z,16.64
2023-04-21T07:12:29.037Z,16.87
2023-04-21T07:14:58.637Z,16.93
2023-04-21T07:17:26.920Z,16.88
2023-04-21T07:19:55.026Z,16.84
2023-04-21T07:22:23.093Z,17.18
2023-04-21T07:24:51.403Z,17.41
2023-04-21T07:27:20.281Z,17.48
2023-04-21T07:29:48.361Z,17.53
2023-04-21T07:32:17.798Z,17.45
2023-04-21T07:34:47.069Z,17.40
2023-04-21T07:37:15.130Z,17.43
2023-04-21T07:39:43.514Z,17.35
2023-04-21T07:42:11.939Z,17.75
2023-04-21T07:44:40.053Z,18.07
2023-04-21T07:47:08.203Z,18.29
2023-04-21T07:49:37.713Z,18.17
2023-04-21T07:52:05.776Z,18.27
2023-04-21T07:54:33.853Z,18.25
2023-04-21T07:57:02.590Z,18.11
2023-04-21T07:59:30.831Z,18.42
2023-04-21T08:01:58.916Z,18.46
2023-04-21T08:04:27.439Z,18.62
2023-04-21T08:06:56.940Z,18.56
2023-04-21T08:09:25.155Z,18.76
2023-04-21T08:11:54.017Z,18.78
2023-04-21T08:14:22.296Z,18.81
2023-04-21T08:16:51.112Z,18.78
2023-04-21T08:19:19.694Z,19.05
2023-04-21T08:21:48.008Z,19.15
2023-04-21T08:24:17.715Z,19.27
2023-04-21T08:26:46.048Z,19.24
2023-04-21T08:29:14.285Z,19.52
2023-04-21T08:31:42.601Z,19.53
2023-04-21T08:34:11.026Z,19.58
2023-04-21T08:36:39.092Z,19.62
2023-04-21T08:39:07.181Z,19.38
2023-04-21T08:41:36.648Z,19.58
2023-04-21T08:44:06.079Z,19.93
2023-04-21T08:46:34.818Z,19.76
2023-04-21T08:49:03.460Z,20.04
2023-04-21T08:51:32.134Z,20.28
2023-04-21T08:54:00.222Z,20.55
2023-04-21T08:56:28.589Z,20.12
2023-04-21T08:58:58.068Z,19.55
2023-04-21T09:01:26.181Z,19.57
2023-04-21T09:03:54.573Z,19.33
2023-04-21T09:06:22.857Z,19.97
2023-04-21T09:08:56.642Z,20.43
2023-04-21T09:11:25.804Z,20.61
2023-04-21T09:13:59.695Z,20.24
2023-04-21T09:16:33.176Z,20.69
2023-04-21T09:19:02.103Z,20.73
2023-04-21T09:21:32.413Z,20.31
2023-04-21T09:24:06.709Z,20.73
2023-04-21T09:26:37.502Z,21.08
2023-04-21T09:29:07.724Z,20.68
2023-04-21T09:31:37.327Z,20.73
2023-04-21T09:34:19.778Z,20.90
2023-04-21T09:36:48.563Z,20.43
2023-04-21T09:41:48.138Z,20.51
2023-04-21T09:44:18.467Z,19.94
2023-04-21T09:46:50.766Z,20.33
2023-04-21T09:49:19.537Z,20.69
2023-04-21T09:54:29.759Z,20.66
2023-04-21T09:57:01.974Z,20.64
2023-04-21T09:59:34.338Z,20.61
2023-04-21T10:02:05.852Z,20.54
2023-04-21T10:04:36.267Z,20.66
2023-04-21T10:07:04.900Z,21.00
2023-04-21T10:09:38.064Z,20.93
2023-04-21T10:12:09.186Z,20.46
2023-04-21T10:14:39.395Z,19.45
2023-04-21T10:17:10.082Z,20.37
2023-04-21T10:19:40.778Z,19.85
2023-04-21T10:22:10.501Z,20.47
2023-04-21T10:24:40.189Z,20.54
2023-04-21T10:27:12.257Z,21.38
2023-04-21T10:29:55.243Z,21.16
2023-04-21T10:32:41.941Z,20.79
2023-04-21T10:35:11.272Z,21.16
2023-04-21T10:37:39.505Z,21.51
2023-04-21T10:40:11.050Z,21.51
2023-04-21T10:42:39.119Z,20.83
2023-04-21T10:45:11.797Z,20.68
2023-04-21T10:47:43.011Z,20.15
2023-04-21T10:50:19.609Z,19.77
2023-04-21T10:52:53.601Z,18.98
2023-04-21T10:55:22.669Z,20.14
2023-04-21T10:57:50.975Z,20.56
2023-04-21T11:00:23.071Z,18.84
2023-04-21T11:02:59.412Z,20.54
2023-04-21T11:05:38.477Z,21.08
2023-04-21T11:08:15.094Z,20.65
2023-04-21T11:10:45.121Z,20.36
2023-04-21T11:13:13.210Z,21.02
2023-04-21T11:15:42.891Z,21.48
2023-04-21T11:18:12.196Z,21.22
2023-04-21T11:20:46.193Z,20.97
2023-04-21T11:23:18.899Z,21.41
2023-04-21T11:25:49.515Z,21.92
2023-04-21T11:28:23.292Z,21.97
2023-04-21T11:30:52.976Z,21.87
2023-04-21T11:33:21.410Z,22.02
2023-04-21T11:35:51.693Z,22.24
2023-04-21T11:38:20.016Z,22.35
2023-04-21T11:40:48.826Z,22.67
2023-04-21T11:43:17.153Z,22.17
2023-04-21T11:45:49.693Z,22.42
2023-04-21T11:48:20.677Z,23.01
2023-04-21T11:50:49.371Z,22.26
2023-04-21T11:53:18.003Z,22.61
2023-04-21T11:55:47.192Z,23.02
2023-04-21T11:58:16.585Z,23.19
2023-04-21T12:00:46.810Z,24.39
2023-04-21T12:03:15.222Z,25.23
2023-04-21T12:05:44.839Z,25.82
2023-04-21T12:08:15.992Z,25.09
2023-04-21T12:10:47.433Z,24.76
2023-04-21T12:13:23.496Z,25.85
2023-04-21T12:15:51.815Z,22.89
2023-04-21T12:18:20.036Z,24.31
2023-04-21T12:20:53.467Z,25.08
2023-04-21T12:23:21.609Z,25.92
2023-04-21T12:25:50.142Z,25.23
2023-04-21T12:28:18.960Z,25.72
2023-04-21T12:30:46.950Z,26.50
2023-04-21T12:33:15.216Z,26.85
2023-04-21T12:35:43.383Z,25.98
2023-04-21T12:38:12.937Z,21.88
2023-04-21T12:40:41.050Z,21.76
2023-04-21T12:43:09.163Z,21.30
2023-04-21T12:45:37.423Z,22.59
2023-04-21T12:48:05.489Z,23.95
2023-04-21T12:50:33.525Z,24.90
2023-04-21T12:53:01.676Z,24.93
2023-04-21T12:55:31.083Z,26.04
2023-04-21T12:57:59.633Z,24.59
2023-04-21T13:00:28.570Z,25.95
2023-04-21T13:02:56.827Z,25.46
2023-04-21T13:05:25.539Z,26.47
2023-04-21T13:07:54.425Z,26.82
2023-04-21T13:10:22.583Z,26.32
2023-04-21T13:12:52.058Z,24.99
2023-04-21T13:15:20.128Z,23.66
2023-04-21T13:17:48.440Z,24.10
2023-04-21T13:20:19.232Z,25.18
2023-04-21T13:22:47.507Z,24.71
2023-04-21T13:25:15.598Z,26.06
2023-04-21T13:27:43.798Z,26.31
2023-04-21T13:30:15.939Z,26.98
2023-04-21T13:32:45.070Z,27.45
2023-04-21T13:35:13.198Z,27.10
2023-04-21T13:37:42.496Z,27.04
2023-04-21T13:40:12.076Z,26.34
2023-04-21T13:42:40.733Z,26.77
2023-04-21T13:45:09.785Z,27.79
2023-04-21T13:47:39.489Z,25.48
2023-04-21T13:50:09.174Z,26.27
2023-04-21T13:52:37.432Z,26.46
2023-04-21T13:55:06.296Z,26.94
2023-04-21T13:57:34.572Z,26.90
2023-04-21T14:00:03.875Z,26.15
2023-04-21T14:02:32.430Z,26.90
2023-04-21T14:05:02.535Z,27.58
2023-04-21T14:07:31.421Z,27.82
2023-04-21T14:09:59.634Z,27.93
2023-04-21T14:12:27.720Z,27.34
2023-04-21T14:14:55.846Z,27.28
2023-04-21T14:17:24.344Z,27.33
2023-04-21T14:19:54.541Z,27.69
2023-04-21T14:22:24.779Z,25.22
2023-04-21T14:24:52.925Z,25.57
2023-04-21T14:27:21.357Z,27.09
2023-04-21T14:29:49.384Z,27.50
2023-04-21T14:32:20.518Z,28.04
2023-04-21T14:34:53.315Z,27.69
2023-04-21T14:37:21.968Z,27.89
2023-04-21T14:39:52.961Z,28.38
2023-04-21T14:42:21.426Z,28.11
2023-04-21T14:44:49.552Z,28.38
2023-04-21T14:47:17.981Z,28.27
2023-04-21T14:49:46.374Z,28.08
2023-04-21T14:52:15.007Z,27.88
2023-04-21T14:54:43.050Z,28.47
2023-04-21T14:57:20.644Z,27.48
2023-04-21T14:59:50.784Z,28.18
2023-04-21T15:02:19.154Z,28.27
2023-04-21T15:04:47.835Z,27.95
2023-04-21T15:07:19.825Z,28.28
2023-04-21T15:09:51.942Z,28.61
2023-04-21T15:12:21.502Z,28.00
2023-04-21T15:14:49.697Z,27.94
2023-04-21T15:17:17.800Z,28.26
2023-04-21T15:19:45.915Z,28.56
2023-04-21T15:22:15.372Z,27.83
2023-04-21T15:24:43.604Z,28.02
2023-04-21T15:27:11.689Z,27.56
2023-04-21T15:29:41.238Z,28.02
2023-04-21T15:32:09.664Z,27.94
2023-04-21T15:34:37.739Z,28.05
2023-04-21T15:37:05.848Z,27.49
2023-04-21T15:39:33.996Z,27.86
2023-04-21T15:42:04.439Z,28.21
2023-04-21T15:44:34.106Z,27.97
2023-04-21T15:47:03.886Z,27.96
2023-04-21T15:49:32.012Z,27.79
2023-04-21T15:52:00.174Z,27.71
2023-04-21T15:54:28.265Z,28.01
2023-04-21T15:56:57.700Z,28.48
2023-04-21T15:59:26.352Z,28.09
2023-04-21T16:01:54.867Z,27.73
2023-04-21T16:04:24.559Z,28.40
2023-04-21T16:06:52.857Z,28.14
2023-04-21T16:09:21.906Z,28.16
2023-04-21T16:11:51.510Z,28.33
2023-04-21T16:14:19.944Z,27.86
2023-04-21T16:16:48.124Z,27.46
2023-04-21T16:19:16.663Z,27.71
2023-04-21T16:21:46.155Z,27.56
2023-04-21T16:24:14.322Z,27.16
2023-04-21T16:26:42.458Z,26.97
2023-04-21T16:29:10.560Z,27.06
2023-04-21T16:31:38.723Z,26.96
2023-04-21T16:34:06.838Z,27.56
2023-04-21T16:36:35.159Z,27.00
2023-04-21T16:39:04.628Z,26.56
2023-04-21T16:41:32.791Z,26.73
2023-04-21T16:44:00.883Z,26.56
2023-04-21T16:46:29.348Z,26.34
2023-04-21T16:48:57.463Z,26.54
2023-04-21T16:51:26.989Z,26.20
2023-04-21T16:53:56.642Z,26.04
2023-04-21T16:56:26.149Z,26.16
2023-04-21T16:58:54.377Z,26.53
2023-04-21T17:01:22.529Z,25.46
2023-04-21T17:03:50.831Z,25.30
2023-04-21T17:06:21.364Z,25.36
2023-04-21T17:08:49.886Z,24.68
2023-04-21T17:11:17.879Z,24.53
2023-04-21T17:13:47.315Z,24.12
2023-04-21T17:16:15.886Z,23.99
2023-04-21T17:18:43.988Z,23.61
2023-04-21T17:21:12.609Z,23.60
2023-04-21T17:23:40.958Z,23.40
2023-04-21T17:26:11.579Z,23.53
2023-04-21T17:28:41.517Z,23.09
2023-04-21T17:31:15.626Z,22.55
2023-04-21T17:33:44.351Z,22.59
2023-04-21T17:36:12.754Z,22.76
2023-04-21T17:38:42.883Z,22.61
2023-04-21T17:41:11.572Z,22.57
2023-04-21T17:43:39.673Z,22.18
2023-04-21T17:46:08.285Z,22.25
2023-04-21T17:48:38.365Z,21.97
2023-04-21T17:51:06.617Z,21.87
2023-04-21T17:53:34.746Z,21.68
2023-04-21T17:56:03.032Z,21.53
2023-04-21T17:58:31.010Z,21.26
2023-04-21T18:00:59.270Z,21.09
2023-04-21T18:03:27.598Z,20.90
2023-04-21T18:05:57.606Z,20.53
2023-04-21T18:08:26.450Z,20.52
2023-04-21T18:10:55.552Z,20.38
2023-04-21T18:13:23.580Z,20.07
2023-04-21T18:15:51.879Z,20.03
2023-04-21T18:18:19.978Z,20.19
2023-04-21T18:20:48.363Z,19.95
2023-04-21T18:23:17.782Z,19.86
2023-04-21T18:25:45.956Z,19.80
2023-04-21T18:28:14.407Z,19.82
2023-04-21T18:30:42.916Z,19.82
2023-04-21T18:33:11.761Z,19.70
2023-04-21T18:35:40.241Z,19.67
2023-04-21T18:38:10.549Z,19.56
2023-04-21T18:40:40.859Z,19.49
2023-04-21T18:43:09.783Z,19.39
2023-04-21T18:45:38.074Z,19.26
2023-04-21T18:48:06.403Z,19.18
2023-04-21T18:50:39.490Z,19.06
2023-04-21T18:53:08.591Z,19.04
2023-04-21T18:55:37.474Z,18.99
2023-04-21T18:58:07.157Z,18.85
2023-04-21T19:00:37.743Z,18.81
2023-04-21T19:03:07.103Z,18.63
2023-04-21T19:05:36.848Z,18.53
2023-04-21T19:08:05.236Z,18.48
2023-04-21T19:10:35.540Z,18.35
2023-04-21T19:13:03.631Z,18.26
2023-04-21T19:15:33.090Z,18.26
2023-04-21T19:18:01.324Z,18.07
2023-04-21T19:20:30.326Z,18.08
2023-04-21T19:22:58.411Z,18.03
2023-04-21T19:25:26.434Z,17.93
2023-04-21T19:27:54.562Z,17.77
2023-04-21T19:30:22.840Z,17.78
2023-04-21T19:32:52.322Z,17.73
2023-04-21T19:35:20.945Z,17.70
2023-04-21T19:37:48.983Z,17.66
2023-04-21T19:40:17.167Z,17.61
2023-04-21T19:42:45.334Z,17.55
2023-04-21T19:45:13.355Z,17.51
2023-04-21T19:47:41.420Z,17.43
2023-04-21T19:50:12.946Z,17.38
2023-04-21T19:52:41.019Z,17.34
2023-04-21T19:55:09.817Z,17.29
2023-04-21T19:57:37.906Z,17.24
2023-04-21T20:00:09.240Z,17.14
2023-04-21T20:02:40.372Z,17.11
2023-04-21T20:05:10.976Z,17.06
2023-04-21T20:07:39.774Z,16.99
2023-04-21T20:10:08.630Z,16.91
2023-04-21T20:12:36.924Z,16.84
2023-04-21T20:15:06.132Z,16.84
2023-04-21T20:17:34.322Z,16.77
2023-04-21T20:20:03.386Z,16.72
2023-04-21T20:22:32.838Z,16.66
2023-04-21T20:25:00.947Z,16.60
2023-04-21T20:27:28.969Z,16.54
2023-04-21T20:29:56.974Z,16.47
2023-04-21T20:32:25.158Z,16.43
2023-04-21T20:34:54.101Z,16.36
2023-04-21T20:37:23.143Z,16.29
2023-04-21T20:39:52.794Z,16.23
2023-04-21T20:42:21.909Z,16.15
2023-04-21T20:44:50.192Z,16.10
2023-04-21T20:47:18.287Z,16.00
2023-04-21T20:49:47.392Z,16.08
2023-04-21T20:52:16.052Z,16.05
2023-04-21T20:54:44.136Z,15.99
2023-04-21T20:57:13.578Z,15.95
2023-04-21T20:59:41.834Z,15.88
2023-04-21T21:02:10.214Z,15.85
2023-04-21T21:04:38.351Z,15.82
2023-04-21T21:07:06.510Z,15.72
2023-04-21T21:09:34.616Z,15.71
2023-04-21T21:12:03.542Z,15.60
2023-04-21T21:14:32.954Z,15.57
2023-04-21T21:17:01.502Z,15.54
2023-04-21T21:19:29.786Z,15.37
2023-04-21T21:21:57.903Z,15.27
2023-04-21T21:24:26.490Z,14.98
2023-04-21T21:26:54.535Z,15.05
2023-04-21T21:29:22.602Z,15.16
2023-04-21T21:31:52.102Z,15.13
2023-04-21T21:34:20.294Z,15.01
2023-04-21T21:36:48.414Z,15.13
2023-04-21T21:39:16.527Z,15.01
2023-04-21T21:41:44.493Z,15.13
2023-04-21T21:44:12.626Z,15.12
2023-04-21T21:46:41.295Z,15.10
2023-04-21T21:49:11.485Z,15.07
2023-04-21T21:51:39.594Z,14.74
2023-04-21T21:54:07.588Z,14.84
2023-04-21T21:56:36.661Z,14.98
2023-04-21T21:59:04.738Z,14.84
2023-04-21T22:01:32.970Z,14.64
2023-04-21T22:04:01.241Z,14.91
2023-04-21T22:06:32.670Z,14.81
2023-04-21T22:09:00.805Z,14.72
2023-04-21T22:11:28.839Z,14.69
2023-04-21T22:14:00.629Z,14.82
2023-04-21T22:16:34.552Z,14.86
2023-04-21T22:19:03.558Z,14.93
2023-04-21T22:21:33.032Z,14.83
2023-04-21T22:24:01.020Z,14.93
2023-04-21T22:26:29.078Z,14.92
2023-04-21T22:28:57.225Z,15.02
2023-04-21T22:31:25.313Z,15.01
2023-04-21T22:33:53.410Z,14.92
2023-04-21T22:36:21.453Z,14.64
2023-04-21T22:38:50.995Z,14.78
2023-04-21T22:41:19.040Z,14.41
2023-04-21T22:43:47.119Z,14.44
2023-04-21T22:46:15.341Z,14.57
2023-04-21T22:48:46.540Z,14.54
2023-04-21T22:51:14.990Z,14.59
2023-04-21T22:53:42.987Z,14.53
2023-04-21T22:56:12.364Z,14.51
2023-04-21T22:58:41.689Z,14.47
2023-04-21T23:01:09.845Z,14.53
2023-04-21T23:03:38.065Z,14.51
2023-04-21T23:06:06.416Z,14.61
2023-04-21T23:08:34.623Z,14.63
2023-04-21T23:11:04.204Z,14.54
2023-04-21T23:13:33.752Z,14.50
2023-04-21T23:16:02.370Z,14.43
2023-04-21T23:18:30.543Z,14.52
2023-04-21T23:20:59.040Z,14.52
2023-04-21T23:23:27.196Z,14.58
2023-04-21T23:25:55.218Z,14.59
2023-04-21T23:28:24.397Z,14.50
2023-04-21T23:30:53.861Z,14.43
2023-04-21T23:33:21.956Z,14.27
2023-04-21T23:35:50.061Z,14.39
2023-04-21T23:38:18.181Z,14.35
2023-04-21T23:40:46.178Z,14.25
2023-04-21T23:43:14.389Z,14.35
2023-04-21T23:45:42.576Z,14.34
2023-04-21T23:48:12.035Z,14.35
2023-04-21T23:50:40.243Z,13.93
2023-04-21T23:53:08.239Z,13.90
2023-04-21T23:55:36.315Z,13.89
2023-04-21T23:58:04.521Z,13.93
